createdAt,value
2023-02-04T00:07:18.431Z,40.99
2023-02-04T00:17:19.975Z,40.87
2023-02-04T00:27:21.368Z,40.96
2023-02-04T00:37:22.836Z,40.88
2023-02-04T00:47:24.226Z,40.92
2023-02-04T00:57:25.615Z,40.88
2023-02-04T01:07:27.070Z,40.88
2023-02-04T01:17:28.451Z,40.92
2023-02-04T01:27:29.901Z,40.91
2023-02-04T01:37:31.292Z,41.06
2023-02-04T01:47:33.011Z,41.00
2023-02-04T01:57:34.490Z,40.99
2023-02-04T02:07:35.873Z,41.00
2023-02-04T02:17:37.415Z,41.04
2023-02-04T02:27:38.930Z,41.00
2023-02-04T02:37:40.344Z,40.79
2023-02-04T02:47:41.871Z,40.44
2023-02-04T02:57:45.425Z,40.15
2023-02-04T03:07:46.945Z,39.95
2023-02-04T03:17:48.520Z,39.88
2023-02-04T03:27:51.526Z,39.65
2023-02-04T03:37:53.009Z,39.64
2023-02-04T03:47:54.520Z,39.54
2023-02-04T03:57:55.938Z,39.77
2023-02-04T04:07:57.939Z,39.72
2023-02-04T04:17:59.505Z,39.82
2023-02-04T04:28:01.104Z,40.09
2023-02-04T04:38:03.277Z,40.34
2023-02-04T04:48:04.981Z,40.27
2023-02-04T04:58:07.000Z,40.27
2023-02-04T05:08:12.956Z,40.16
2023-02-04T05:18:14.327Z,39.98
2023-02-04T05:28:15.769Z,39.88
2023-02-04T05:38:17.194Z,39.69
2023-02-04T05:48:18.639Z,39.62
2023-02-04T05:58:20.016Z,39.43
2023-02-04T06:08:21.406Z,39.45
2023-02-04T06:18:22.800Z,39.46
2023-02-04T06:28:24.178Z,39.64
2023-02-04T06:38:25.563Z,39.76
2023-02-04T06:48:26.993Z,39.68
2023-02-04T06:58:28.391Z,39.82
2023-02-04T07:08:29.768Z,39.59
2023-02-04T07:18:31.173Z,39.63
2023-02-04T07:28:32.584Z,39.67
2023-02-04T07:38:33.974Z,39.88
2023-02-04T07:48:35.368Z,39.92
2023-02-04T07:58:36.750Z,39.83
2023-02-04T08:08:38.309Z,39.68
2023-02-04T08:18:39.888Z,39.63
2023-02-04T08:28:41.292Z,39.46
2023-02-04T08:38:44.434Z,39.54
2023-02-04T08:48:45.989Z,39.49
2023-02-04T08:58:52.615Z,39.59
2023-02-04T09:08:54.016Z,39.40
2023-02-04T09:18:55.874Z,39.25
2023-02-04T09:28:57.282Z,39.24
2023-02-04T09:38:58.850Z,39.25
2023-02-04T09:49:00.564Z,39.32
2023-02-04T09:59:01.985Z,39.28
2023-02-04T10:09:03.417Z,39.31
2023-02-04T10:19:07.315Z,39.16
2023-02-04T10:29:14.370Z,39.04
2023-02-04T10:39:16.618Z,39.06
2023-02-04T10:49:22.702Z,38.96
2023-02-04T10:59:26.736Z,39.00
2023-02-04T11:09:28.178Z,38.81
2023-02-04T11:19:35.130Z,38.83
2023-02-04T11:29:41.147Z,38.93
2023-02-04T11:39:43.161Z,39.03
2023-02-04T11:49:44.997Z,39.01
2023-02-04T11:59:46.540Z,39.12
2023-02-04T12:09:49.418Z,39.04
2023-02-04T12:19:50.896Z,39.08
2023-02-04T12:29:52.420Z,39.05
2023-02-04T12:39:53.961Z,38.78
2023-02-04T12:49:55.378Z,38.99
2023-02-04T12:59:59.411Z,39.12
2023-02-04T13:10:00.808Z,38.88
2023-02-04T13:20:02.234Z,39.06
2023-02-04T13:30:05.292Z,39.00
2023-02-04T13:40:07.884Z,39.03
2023-02-04T13:50:09.608Z,38.97
2023-02-04T14:00:12.999Z,39.03
2023-02-04T14:10:14.594Z,39.01
2023-02-04T14:20:16.350Z,39.09
2023-02-04T14:30:19.728Z,39.03
2023-02-04T14:40:21.339Z,39.27
2023-02-04T14:50:26.882Z,39.39
2023-02-04T15:00:28.410Z,39.39
2023-02-04T15:10:29.922Z,39.51
2023-02-04T15:20:32.058Z,39.58
2023-02-04T15:30:34.199Z,39.73
2023-02-04T15:40:35.860Z,39.83
2023-02-04T15:50:39.689Z,39.93
2023-02-04T16:00:41.520Z,40.15
2023-02-04T16:10:43.056Z,40.23
2023-02-04T16:20:44.486Z,40.36
2023-02-04T16:30:45.919Z,40.45
2023-02-04T16:40:47.410Z,40.56
2023-02-04T16:50:48.786Z,40.65
2023-02-04T17:00:50.205Z,40.78
2023-02-04T17:11:10.168Z,40.91
2023-02-04T17:21:11.567Z,40.84
2023-02-04T17:31:13.266Z,40.90
2023-02-04T17:41:14.959Z,40.96
2023-02-04T17:51:16.709Z,40.77
2023-02-04T18:01:18.991Z,41.10
2023-02-04T18:11:27.444Z,41.10
2023-02-04T18:21:31.625Z,40.99
2023-02-04T18:31:53.406Z,40.92
2023-02-04T18:41:54.976Z,40.82
2023-02-04T18:51:57.655Z,40.96
2023-02-04T19:01:59.061Z,40.92
2023-02-04T19:12:00.913Z,40.96
2023-02-04T19:22:37.584Z,40.98
2023-02-04T19:32:45.127Z,41.11
2023-02-04T19:42:46.587Z,40.96
2023-02-04T19:52:49.510Z,41.07
2023-02-04T20:02:50.888Z,41.11
2023-02-04T20:12:55.598Z,41.09
2023-02-04T20:23:18.734Z,41.14
2023-02-04T20:33:40.155Z,41.20
2023-02-04T20:43:42.128Z,41.27
2023-02-04T20:53:43.386Z,41.35
2023-02-04T21:03:45.695Z,41.31
2023-02-04T21:13:47.422Z,41.61
2023-02-04T21:23:48.800Z,41.43
2023-02-04T21:33:50.331Z,41.44
2023-02-04T21:43:51.701Z,41.45
2023-02-04T21:53:53.077Z,41.41
2023-02-04T22:03:54.631Z,41.45
2023-02-04T22:13:56.098Z,41.37
2023-02-04T22:23:57.658Z,41.54
2023-02-04T22:33:59.205Z,41.47
2023-02-04T22:44:00.748Z,41.54
2023-02-04T22:54:02.300Z,41.50
2023-02-04T23:04:03.908Z,41.40
2023-02-04T23:14:05.458Z,41.55
2023-02-04T23:24:06.937Z,41.43
2023-02-04T23:34:08.448Z,41.36
2023-02-04T23:44:09.988Z,41.53
2023-02-04T23:54:12.044Z,41.44
